Impacts TAF Board INFO
FOR SITUATIONAL AWARENESS. NOT TO BE USED FOR FLIGHT PLANNING PURPOSES.
IDs:

KCVG - Cincinnati Intl, KY, US

Issued at 1135 UTC 23 Jan 2018
Updated at 1552 UTC 23 Jan 2018
Potential Impact None Slight Moderate High
Time1452Z 23/16Z 23/17Z 23/18Z 23/19Z 23/20Z 23/21Z 23/22Z 23/23Z 24/00Z 24/01Z 24/02Z 24/03Z 24/04Z>>
Type OBS PRVL PRVL PRVL PRVL PRVL PRVL PRVL PRVL PRVL PRVL PRVL PRVL PRVL
VIS 10 >6 >6 >6 >6 >6 >6 >6 >6 >6 >6 >6 >6 >6
CIG 25 25 25 25 25 25 25 15 15 15 15 15 15 15
Cover OVC OVC OVC OVC OVC OVC OVC OVC OVC OVC OVC OVC OVC OVC
FltCat MVFR MVFR MVFR MVFR MVFR MVFR MVFR MVFR MVFR MVFR MVFR MVFR MVFR MVFR
WX -- VCSH VCSH VCSH VCSH VCSH VCSH VCSH VCSH VCSH VCSH VCSH -- --
WDir 250 240 240 240 240 240 240 270 270 270 270 270 280 280
WSpd 14 16 16 16 16 16 16 10 10 10 10 10 8 8
WGst 20 26 26 26 26 26 26 18 18 18 18 18 -- --

Raw TAF
KCVG 231135Z 2312/2418 24012G24KT P6SM VCSH OVC050
  FM231400 24016G26KT P6SM VCSH OVC025
  FM232200 27010G18KT P6SM VCSH OVC015
  FM240300 28008KT P6SM OVC015
  FM241600 26008KT P6SM VCSH OVC015


Raw METAR
KCVG 231452Z 25014G20KT 10SM BKN025 OVC032 03/01 A2980 RMK AO2 SLP091 60001 T00330006 53030
KCVG 231420Z 24010KT 10SM BKN023 OVC029 03/01 A2978 RMK AO2 T00280006
KCVG 231352Z 25009KT 9SM FEW024 BKN035 03/01 A2977 RMK AO2 RAB00E33SNB23E51 SLP079 P0001 T00280006
KCVG 231336Z 26013G24KT 6SM -SN BR SCT026 OVC031 03/01 A2977 RMK AO2 RAB00E33SNB23 P0000 T00280006
KCVG 231317Z 26013G19KT 10SM -RA OVC029 04/M01 A2975 RMK AO2 RAB00 P0000 T00391006
KCVG 231252Z 23011G19KT 10SM BKN033 OVC046 04/M01 A2973 RMK AO2 SLP067 T00391006

METAR Board
Radar Display
Forecast Discussion

FOR SITUATIONAL AWARENESS. NOT TO BE USED FOR FLIGHT PLANNING PURPOSES.